• Join FlightAware (Why Join?)
  • Login
  • US Flag 
02:54PM EDT


 

Airport Tracker/Info


-or-


 

Live Flight TrackerFlight Track Log ✈ RPA3242 ✈ 25-May-2013 ✈ KPHL - KALB

Flight Track Log - Related Links

Times and Time Zones

All times are in EDT time to prevent confusion due to time zone crossing. See the RPA3242 flight status page for this flight to view local times or setup timezone preferences in your user account.

Time Position Orientation Groundspeed Altitude Reporting Facility
EDT Latitude Longitude Course Direction KTS MPH feet Rate Location/Type
09:22PM 39.8667 -75.2667 37° Northeast 144 166 800  Level Philadelphia TRACON
09:23PM 39.8333 -75.2833 201° Southwest 180 207 2,300 2,220 Climbing Philadelphia TRACON
09:24PM 39.7833 -75.3333 218° Southwest 260 299 4,400 2,700 Climbing Philadelphia TRACON
09:25PM 39.8167 -74.8966 90° East  Level FlightAware Approximate
09:25PM 39.7167 -75.3167 169° South 314 361 7,800  Level Philadelphia TRACON
09:26PM 39.7997 -74.7818 105° East  Level FlightAware Approximate
09:26PM 39.7167 -75.2167 90° East 285 328 11,100  Level Philadelphia TRACON
09:27PM 39.8035 -74.6799 37° Northeast  Level FlightAware Approximate
09:27PM 39.7333 -75.1000 79° East 345 397 12,000  Level Philadelphia TRACON
09:28PM 39.8752 -74.6082 37° Northeast  Level FlightAware Approximate
09:29PM 39.7797 -74.8092 78° East 344 396 13,600  Level New York Center
09:30PM 39.8128 -74.6975 69° East 338 389 15,800 2,220 Climbing New York Center
09:31PM 39.8858 -74.6314 35° Northeast 311 358 18,200 2,220 Climbing New York Center
09:32PM 39.9631 -74.5569 36° Northeast 316 364 20,300 1,980 Climbing New York Center
09:33PM 40.0344 -74.4797 40° Northeast 327 376 22,100 1,740 Climbing New York Center
09:34PM 40.1161 -74.3997 37° Northeast 340 391 23,800 900 Climbing New York Center
09:35PM 40.1975 -74.3281 34° Northeast 346 398 24,000 60 Climbing New York Center
09:36PM 40.2786 -74.2614 32° Northeast 346 398 24,000  Level New York Center
09:37PM 40.3619 -74.1975 30° Northeast 346 398 24,000  Level New York Center
09:38PM 40.4450 -74.1336 30° Northeast 346 398 24,000  Level New York Center
09:39PM 40.5239 -74.0719 31° Northeast 341 392 24,000  Level New York Center
09:40PM 40.6047 -74.0103 30° Northeast 336 387 24,000  Level New York Center
09:42PM 40.7656 -73.8869 30° Northeast 340 391 24,000  Level Boston Center
09:43PM 40.8353 -73.8117 39° Northeast 334 384 24,000  Level Boston Center
09:44PM 40.9072 -73.7253 42° Northeast 334 384 24,000  Level Boston Center
09:45PM 40.9728 -73.6386 45° Northeast 334 384 24,000 -480 Level Boston Center
09:46PM 41.0444 -73.5603 39° Northeast 334 384 23,100 -540 Descending Boston Center
09:47PM 41.1256 -73.5561 North 289 333 23,000 -720 Descending Boston Center
09:48PM 41.2047 -73.5683 353° North 277 319 21,700 -1,500 Descending Boston Center
09:49PM 41.2858 -73.5781 355° North 282 325 20,000 -900 Descending Boston Center
09:50PM 41.3503 -73.5906 352° North 287 330 20,000  Level Boston Center
09:51PM 41.4378 -73.6003 355° North 287 330 20,000  Level Boston Center
09:52PM 41.5147 -73.6128 353° North 287 330 20,000  Level Boston Center
09:53PM 41.6000 -73.6311 351° North 287 330 20,000  Level Boston Center
09:54PM 41.6772 -73.6408 355° North 282 325 20,000  Level Boston Center
09:55PM 41.7583 -73.6533 353° North 282 325 20,000 -360 Level Boston Center
09:56PM 41.8164 -73.6631 353° North 282 325 19,300 -1,200 Descending Boston Center
09:57PM 41.8644 -73.6667 357° North 271 312 18,300 -1,740 Descending Boston Center
09:57PM 41.8978 -73.6728 352° North 258 297 17,700 -1,320 Descending Boston Center
09:58PM 41.9683 -73.6853 352° North 253 291 16,300 -1,740 Descending Boston Center
09:59PM 42.0350 -73.6978 352° North 240 276 14,300 -1,680 Descending Boston Center
10:00PM 42.1036 -73.7106 352° North 235 270 13,000 -1,200 Descending Boston Center
10:01PM 42.1658 -73.7231 352° North 219 252 12,000 -960 Descending Boston Center
10:02PM 42.2242 -73.7325 353° North 219 252 11,100 -900 Descending Boston Center
10:02PM 42.2242 -73.7325 353° North 215 247 11,100 -900 Level Boston Center
10:03PM 42.2761 -73.7419 352° North 219 252 10,200 -1,020 Descending Boston Center
10:04PM 42.3386 -73.7544 352° North 209 241 9,100 -1,200 Descending Boston Center
10:05PM 42.3822 -73.7639 351° North 190 219 7,900 -1,140 Descending Boston Center
10:06PM 42.4383 -73.7736 353° North 185 213 6,900 -1,080 Descending Boston Center
10:07PM 42.4800 -73.7828 351° North 180 207 5,800 -1,260 Descending Boston Center
10:08PM 42.5319 -73.7897 354° North 175 201 4,400 -1,140 Descending Boston Center
10:09PM 42.5736 -73.7933 356° North 170 196 3,600 -840 Descending Boston Center